Time;durP1;ratioP1;P1;durP2;ratioP2;P2;SDS_P1;SDS_P2;PMS_P1;PMS_P2;Temp;Humidity;BMP_temperature;BMP_pressure;BME280_temperature;BME280_humidity;BME280_pressure;Samples;Min_cycle;Max_cycle;Signal;HPM_P1;HPM_P2
2022/06/01 00:02:26;;;;;;;2.38;2.17;;;10.40;99.90;;;;;;4668498;30;20057;-83
2022/06/01 00:04:55;;;;;;;2.70;2.50;;;10.30;99.90;;;;;;4683221;30;20069;-83
2022/06/01 00:07:23;;;;;;;2.50;2.40;;;10.20;99.90;;;;;;4684488;30;20058;-83
2022/06/01 00:09:53;;;;;;;2.20;2.05;;;10.20;99.90;;;;;;4683635;30;20065;-83
2022/06/01 00:12:22;;;;;;;1.95;1.85;;;10.20;99.90;;;;;;4682890;30;20068;-83
2022/06/01 00:14:56;;;;;;;2.75;2.17;;;10.30;99.90;;;;;;4682581;30;20050;-83
2022/06/01 00:17:25;;;;;;;1.95;1.83;;;10.20;99.90;;;;;;4668227;30;20586;-83
2022/06/01 00:19:53;;;;;;;2.38;2.17;;;10.10;99.90;;;;;;4668337;30;20521;-83
2022/06/01 00:22:20;;;;;;;2.85;2.65;;;10.10;99.90;;;;;;4682732;30;20054;-83
2022/06/01 00:24:48;;;;;;;2.60;2.40;;;10.10;99.90;;;;;;4683426;30;20526;-83
2022/06/01 00:27:19;;;;;;;1.73;1.63;;;10.20;99.90;;;;;;4682933;30;20062;-83
2022/06/01 00:29:46;;;;;;;1.92;1.83;;;10.10;99.90;;;;;;4679719;30;20050;-83
2022/06/01 00:32:15;;;;;;;1.73;1.63;;;10.10;99.90;;;;;;4682751;30;20826;-83
2022/06/01 00:34:45;;;;;;;2.60;2.25;;;9.90;99.90;;;;;;4667990;30;20835;-83
2022/06/01 00:37:13;;;;;;;32.75;4.60;;;9.80;99.90;;;;;;4683273;30;20046;-83
2022/06/01 00:39:44;;;;;;;2.25;1.75;;;9.70;99.90;;;;;;4683558;30;20062;-82
2022/06/01 00:42:31;;;;;;;1.50;1.45;;;9.60;99.90;;;;;;4652822;30;20054;-83
2022/06/01 00:45:00;;;;;;;7.88;2.13;;;9.60;99.90;;;;;;4665688;30;20049;-82
2022/06/01 00:47:28;;;;;;;1.35;1.25;;;9.60;99.90;;;;;;4683699;30;20065;-83
2022/06/01 00:50:32;;;;;;;1.70;1.60;;;9.60;99.90;;;;;;4681485;30;20054;-83
2022/06/01 00:53:23;;;;;;;1.40;1.30;;;9.60;99.90;;;;;;4683351;30;20057;-83
2022/06/01 00:55:59;;;;;;;2.22;2.13;;;9.40;99.90;;;;;;4667961;30;20061;-84
2022/06/01 00:58:37;;;;;;;3.38;3.05;;;9.40;99.90;;;;;;4683021;30;20058;-84
2022/06/01 01:01:08;;;;;;;2.42;2.22;;;9.50;99.90;;;;;;4667487;30;20065;-84
2022/06/01 01:03:39;;;;;;;3.03;2.72;;;9.60;99.90;;;;;;4683550;30;20054;-84
2022/06/01 01:06:13;;;;;;;2.30;2.10;;;9.70;99.90;;;;;;4666319;30;20047;-84
2022/06/01 01:08:42;;;;;;;2.10;2.00;;;9.70;99.90;;;;;;4665762;30;20054;-84
2022/06/01 01:11:11;;;;;;;2.03;1.92;;;9.70;99.90;;;;;;4679159;30;20062;-83
2022/06/01 01:13:43;;;;;;;2.72;2.53;;;9.80;99.90;;;;;;4664758;30;20062;-84
2022/06/01 01:16:11;;;;;;;2.05;1.70;;;9.90;99.90;;;;;;4677126;30;20054;-84
2022/06/01 01:18:43;;;;;;;3.03;2.80;;;9.90;99.90;;;;;;4665469;30;20526;-83
2022/06/01 01:21:22;;;;;;;6.15;2.50;;;10.00;99.90;;;;;;4667371;30;20053;-84
2022/06/01 01:24:08;;;;;;;6.50;1.92;;;10.10;99.90;;;;;;4683243;30;20065;-84
2022/06/01 01:26:36;;;;;;;2.75;2.03;;;10.10;99.90;;;;;;4682418;30;20054;-83
2022/06/01 01:29:09;;;;;;;2.00;1.80;;;10.20;99.90;;;;;;4677199;30;20058;-83
2022/06/01 01:31:39;;;;;;;3.17;2.97;;;10.10;99.90;;;;;;4664741;30;20059;-83
2022/06/01 01:34:07;;;;;;;1.95;1.85;;;10.10;99.90;;;;;;4650289;30;20062;-82
2022/06/01 01:36:48;;;;;;;1.77;1.67;;;10.10;99.90;;;;;;4678267;30;20059;-83
2022/06/01 01:39:17;;;;;;;2.03;1.90;;;10.10;99.90;;;;;;4664556;30;20065;-84
2022/06/01 01:41:45;;;;;;;2.30;2.20;;;10.10;99.90;;;;;;4678341;30;20821;-83
2022/06/01 01:44:18;;;;;;;5.80;2.92;;;10.10;99.90;;;;;;4650614;30;20058;-83
2022/06/01 01:46:50;;;;;;;2.90;2.33;;;10.10;99.90;;;;;;4653660;30;20050;-83
2022/06/01 01:49:26;;;;;;;3.15;2.95;;;10.10;99.90;;;;;;4665044;30;20491;-83
2022/06/01 01:52:00;;;;;;;2.17;2.08;;;10.00;99.90;;;;;;4678438;30;20054;-83
2022/06/01 01:54:42;;;;;;;3.05;2.10;;;10.00;99.90;;;;;;4649749;30;20427;-83
2022/06/01 01:57:21;;;;;;;;;;;10.00;99.90;;;;;;4665538;30;20057;-83
2022/06/01 02:00:08;;;;;;;3.00;2.80;;;10.00;99.90;;;;;;4672594;30;19938;-83
2022/06/01 02:02:42;;;;;;;3.58;3.35;;;10.00;99.90;;;;;;4663960;30;20062;-83
2022/06/01 02:08:27;;;;;;;2.58;2.40;;;10.00;99.90;;;;;;4650137;30;20423;-83
2022/06/01 02:15:01;;;;;;;2.10;1.98;;;9.80;99.90;;;;;;4682053;30;20058;-83
2022/06/01 02:18:48;;;;;;;2.42;2.22;;;9.80;99.90;;;;;;4663544;30;20397;-81
2022/06/01 02:22:23;;;;;;;2.10;2.00;;;9.90;99.90;;;;;;4671189;30;20054;-82
2022/06/01 02:31:00;;;;;;;19.70;4.65;;;9.60;99.90;;;;;;4683640;30;20491;-82
2022/06/01 02:36:14;;;;;;;2.53;1.58;;;9.40;99.90;;;;;;4666405;30;20077;-82
2022/06/01 02:40:39;;;;;;;1.42;1.35;;;9.20;99.90;;;;;;4663096;30;20060;-83
2022/06/01 03:13:32;;;;;;;2.03;1.85;;;9.30;99.90;;;;;;4666366;30;20042;-82
2022/06/01 03:21:36;;;;;;;2.30;2.10;;;9.50;99.90;;;;;;4666958;30;20054;-83
2022/06/01 03:28:53;;;;;;;1.35;1.27;;;9.70;99.90;;;;;;4665000;30;20049;-82
2022/06/01 03:31:23;;;;;;;1.70;1.60;;;9.80;99.90;;;;;;4673922;30;20046;-82
2022/06/01 03:33:53;;;;;;;2.30;2.10;;;9.80;99.90;;;;;;4668408;30;20058;-82
2022/06/01 03:36:24;;;;;;;2.35;2.20;;;9.80;99.90;;;;;;4684145;30;20058;-82
2022/06/01 03:38:52;;;;;;;1.88;1.77;;;9.90;99.90;;;;;;4646614;30;20315;-82
2022/06/01 03:41:22;;;;;;;2.05;1.95;;;9.90;99.90;;;;;;4675673;30;20426;-82
2022/06/01 03:46:43;;;;;;;1.80;1.70;;;10.10;99.90;;;;;;4667254;30;20054;-82
2022/06/01 04:00:57;;;;;;;2.72;2.47;;;10.20;99.90;;;;;;4670946;30;20388;-82
2022/06/01 04:05:57;;;;;;;2.88;2.58;;;10.10;99.90;;;;;;4663812;30;20057;-82
2022/06/01 04:14:00;;;;;;;2.30;2.13;;;10.20;99.90;;;;;;4683856;30;20057;-82
2022/06/01 04:16:28;;;;;;;3.90;2.60;;;10.30;99.90;;;;;;4683371;30;20069;-82
2022/06/01 04:18:57;;;;;;;4.28;2.55;;;10.30;99.90;;;;;;4683930;30;20053;-82
2022/06/01 04:21:27;;;;;;;2.72;2.53;;;10.30;99.90;;;;;;4667853;30;20070;-82
2022/06/01 04:24:00;;;;;;;4.35;2.78;;;10.30;99.90;;;;;;4684116;30;20062;-83
2022/06/01 04:26:28;;;;;;;2.50;2.40;;;10.40;99.90;;;;;;4667735;30;20054;-82
2022/06/01 04:28:56;;;;;;;2.97;2.78;;;10.40;99.90;;;;;;4683502;30;20426;-83
2022/06/01 04:31:26;;;;;;;2.55;2.40;;;10.50;99.90;;;;;;4654373;30;20182;-83
2022/06/01 04:33:55;;;;;;;2.28;2.08;;;10.50;99.90;;;;;;4681945;30;20062;-87
2022/06/01 04:36:24;;;;;;;2.20;2.08;;;10.50;99.90;;;;;;4661460;30;20503;-84
2022/06/01 04:53:04;;;;;;;3.03;2.83;;;10.80;99.90;;;;;;4673158;30;20050;-84
2022/06/01 04:57:25;;;;;;;2.63;2.20;;;11.00;99.90;;;;;;4678276;30;20083;-85
2022/06/01 05:01:23;;;;;;;3.17;2.15;;;11.40;99.90;;;;;;4670476;30;20435;-89
2022/06/01 05:04:29;;;;;;;1.90;1.80;;;11.90;99.90;;;;;;4677616;30;20045;-87
2022/06/01 05:06:58;;;;;;;1.98;1.55;;;12.20;99.90;;;;;;4667792;30;20066;-87
2022/06/01 05:09:27;;;;;;;2.20;2.00;;;12.40;99.90;;;;;;4667495;30;20065;-88
2022/06/01 05:11:56;;;;;;;2.00;1.90;;;12.50;99.90;;;;;;4681968;30;20062;-91
2022/06/01 05:14:30;;;;;;;2.80;2.58;;;12.60;99.90;;;;;;4667572;30;20054;-87
2022/06/01 05:17:16;;;;;;;2.80;2.60;;;12.70;99.90;;;;;;4667318;30;20061;-88
2022/06/01 05:19:49;;;;;;;2.50;2.33;;;12.90;99.90;;;;;;4695181;30;20077;-88
2022/06/01 05:22:18;;;;;;;2.67;2.42;;;13.00;99.90;;;;;;4667562;30;20050;-88
2022/06/01 05:24:57;;;;;;;4.03;2.33;;;13.20;99.90;;;;;;4667003;30;20416;-90
2022/06/01 05:27:50;;;;;;;2.33;2.08;;;13.40;99.90;;;;;;4658784;30;20061;-84
2022/06/01 05:31:28;;;;;;;2.38;2.20;;;13.60;99.90;;;;;;4668817;30;20408;-84
2022/06/01 05:35:41;;;;;;;2.65;2.45;;;14.00;99.90;;;;;;4628492;30;20068;-84
2022/06/01 05:39:20;;;;;;;1.90;1.80;;;14.30;99.90;;;;;;4620883;30;20051;-84
2022/06/01 05:44:21;;;;;;;2.97;2.40;;;14.20;99.90;;;;;;4648553;30;20082;-84
2022/06/01 05:48:40;;;;;;;2.42;2.28;;;13.90;99.90;;;;;;4628057;30;20046;-84
2022/06/01 05:57:13;;;;;;;2.75;2.55;;;14.20;99.90;;;;;;4642284;30;20069;-84
2022/06/01 06:00:26;;;;;;;1.80;1.70;;;14.60;99.90;;;;;;4668896;30;20050;-84
2022/06/01 06:04:19;;;;;;;2.42;2.22;;;14.60;99.90;;;;;;4678442;30;20672;-85
2022/06/01 06:07:44;;;;;;;1.88;1.77;;;14.90;99.90;;;;;;4654203;30;20054;-84
2022/06/01 06:10:44;;;;;;;1.67;1.58;;;15.00;99.90;;;;;;4631443;30;20532;-85
2022/06/01 06:13:16;;;;;;;;;;;15.10;99.90;;;;;;4646406;30;20042;-84
2022/06/01 06:15:49;;;;;;;2.40;2.03;;;15.20;99.90;;;;;;4666014;30;19928;-84
2022/06/01 06:18:20;;;;;;;3.50;2.00;;;15.20;99.90;;;;;;4664971;30;20061;-86
2022/06/01 06:21:25;;;;;;;1.50;1.45;;;15.20;99.90;;;;;;4679161;30;20091;-84
2022/06/01 06:34:17;;;;;;;2.40;2.20;;;15.40;99.90;;;;;;4661973;30;20080;-85
2022/06/01 06:38:11;;;;;;;1.55;1.45;;;15.60;99.90;;;;;;4636482;30;20052;-86
2022/06/01 06:41:23;;;;;;;1.95;1.73;;;15.70;99.90;;;;;;4619708;30;20051;-85
2022/06/01 06:48:50;;;;;;;2.90;2.08;;;15.90;99.90;;;;;;4611916;31;20060;-85
2022/06/01 06:52:02;;;;;;;1.58;1.48;;;15.80;99.90;;;;;;4570971;31;20730;-85
2022/06/01 06:54:56;;;;;;;2.20;2.00;;;15.60;99.90;;;;;;4614513;30;20083;-85
2022/06/01 06:57:24;;;;;;;5.15;2.30;;;15.70;99.90;;;;;;4649086;30;20125;-85
2022/06/01 06:59:52;;;;;;;2.42;1.80;;;15.90;99.90;;;;;;4663272;30;20058;-84
2022/06/01 07:02:21;;;;;;;2.20;2.00;;;15.90;99.90;;;;;;4664247;30;20066;-86
2022/06/01 07:08:55;;;;;;;3.72;3.38;;;16.30;99.90;;;;;;4666064;30;20069;-86
2022/06/01 07:11:46;;;;;;;3.70;1.95;;;16.60;99.90;;;;;;4632869;30;20503;-84
2022/06/01 07:15:02;;;;;;;3.05;1.95;;;16.80;99.90;;;;;;4671699;30;20582;-85
2022/06/01 07:18:13;;;;;;;;;;;;;;;;;;;;;
2022/06/01 07:21:03;;;;;;;3.08;1.65;;;17.40;99.90;;;;;;4662206;30;20054;-86
2022/06/01 07:24:01;;;;;;;3.85;2.03;;;17.80;99.90;;;;;;4683203;30;20062;-85
2022/06/01 07:26:54;;;;;;;2.28;2.05;;;18.00;99.90;;;;;;4667696;30;20053;-86
2022/06/01 07:29:35;;;;;;;2.55;2.38;;;18.00;99.90;;;;;;4679874;30;20058;-87
2022/06/01 07:32:09;;;;;;;2.45;2.25;;;18.00;99.90;;;;;;4661165;30;20057;-88
2022/06/01 07:34:38;;;;;;;4.55;2.33;;;17.70;99.90;;;;;;4684153;30;20058;-84
2022/06/01 07:45:04;;;;;;;2.75;1.77;;;17.30;99.90;;;;;;4601441;30;20060;-88
2022/06/01 07:47:58;;;;;;;1.70;1.60;;;17.60;99.90;;;;;;4668435;30;20068;-85
2022/06/01 07:51:02;;;;;;;2.92;2.72;;;17.80;99.90;;;;;;4670575;30;20415;-89
2022/06/01 07:53:42;;;;;;;3.03;2.25;;;17.80;99.90;;;;;;4650439;30;20058;-89
2022/06/01 07:56:10;;;;;;;;;;;17.90;99.90;;;;;;4666378;30;20065;-85
2022/06/01 07:58:38;;;;;;;2.30;1.75;;;17.60;99.90;;;;;;4651455;30;19931;-85
2022/06/01 08:01:07;;;;;;;1.63;1.48;;;17.50;99.90;;;;;;4683785;30;20046;-87
2022/06/01 08:03:39;;;;;;;1.77;1.67;;;17.60;99.90;;;;;;4669253;30;20070;-89
2022/06/01 08:06:07;;;;;;;1.88;1.77;;;17.90;99.90;;;;;;4644729;30;20053;-88
2022/06/01 08:08:44;;;;;;;2.10;1.95;;;18.10;99.90;;;;;;4688244;30;20054;-86
2022/06/01 08:14:24;;;;;;;3.08;2.03;;;18.40;99.90;;;;;;4663538;30;20057;-83
2022/06/01 08:16:58;;;;;;;5.07;1.83;;;18.40;99.90;;;;;;4651751;30;20077;-87
2022/06/01 08:19:32;;;;;;;1.50;1.40;;;18.00;99.90;;;;;;4651556;30;20054;-88
2022/06/01 08:22:03;;;;;;;3.22;2.30;;;17.90;99.90;;;;;;4665718;30;20038;-88
2022/06/01 08:24:39;;;;;;;1.90;1.80;;;17.90;99.90;;;;;;4651159;30;20054;-89
2022/06/01 08:27:35;;;;;;;4.80;2.20;;;18.00;99.90;;;;;;4651463;30;20416;-89
2022/06/01 08:30:05;;;;;;;4.78;2.05;;;18.20;99.90;;;;;;4665354;30;20508;-89
2022/06/01 08:32:53;;;;;;;2.25;2.08;;;18.30;99.90;;;;;;4657394;30;20050;-89
2022/06/01 08:35:26;;;;;;;3.78;1.67;;;18.50;99.90;;;;;;4665688;30;20065;-89
2022/06/01 08:37:55;;;;;;;3.10;2.35;;;18.60;99.90;;;;;;4671365;30;20054;-89
2022/06/01 08:40:28;;;;;;;1.60;1.50;;;18.80;99.90;;;;;;4668676;30;20058;-87
2022/06/01 08:43:04;;;;;;;1.58;1.48;;;18.80;99.90;;;;;;4668019;30;20074;-88
2022/06/01 08:46:01;;;;;;;2.30;1.60;;;18.80;99.90;;;;;;4670637;30;20046;-87
2022/06/01 08:48:37;;;;;;;1.90;1.75;;;18.60;99.90;;;;;;4682311;30;20058;-86
2022/06/01 08:51:11;;;;;;;2.00;1.80;;;18.50;99.90;;;;;;4676870;30;20057;-86
2022/06/01 08:53:40;;;;;;;2.10;1.98;;;18.60;99.90;;;;;;4665083;30;20062;-86
2022/06/01 08:56:18;;;;;;;2.15;1.90;;;18.70;99.90;;;;;;4665259;30;20055;-86
2022/06/01 08:59:05;;;;;;;2.25;1.92;;;18.90;99.90;;;;;;4663602;30;20061;-85
2022/06/01 09:01:59;;;;;;;4.30;1.63;;;19.00;99.90;;;;;;4649954;30;20050;-85
2022/06/01 09:04:28;;;;;;;1.30;1.20;;;18.90;99.90;;;;;;4649425;30;20062;-85
2022/06/01 09:07:28;;;;;;;1.30;1.17;;;18.60;99.90;;;;;;4664239;30;20054;-84
2022/06/01 09:10:08;;;;;;;2.05;1.58;;;18.50;99.90;;;;;;4663479;30;20058;-82
2022/06/01 09:12:37;;;;;;;4.38;1.65;;;18.60;99.90;;;;;;4663707;30;20061;-84
2022/06/01 09:15:24;;;;;;;1.65;1.55;;;18.50;99.90;;;;;;4664396;30;20748;-86
2022/06/01 09:17:55;;;;;;;1.42;1.30;;;18.50;99.90;;;;;;4664071;30;20793;-86
2022/06/01 09:23:13;;;;;;;2.85;1.80;;;18.80;99.90;;;;;;4649742;30;20054;-87
2022/06/01 09:25:50;;;;;;;2.22;1.65;;;19.20;99.90;;;;;;4663879;30;20046;-85
2022/06/01 09:28:27;;;;;;;4.03;2.15;;;19.40;99.90;;;;;;4678763;30;20065;-86
2022/06/01 09:31:02;;;;;;;1.73;1.63;;;19.30;99.90;;;;;;4681713;30;20499;-85
2022/06/01 09:33:33;;;;;;;4.85;2.95;;;19.40;99.90;;;;;;4694993;30;20050;-87
2022/06/01 09:36:09;;;;;;;1.75;1.65;;;19.30;99.90;;;;;;4680894;30;20061;-87
2022/06/01 09:38:39;;;;;;;;;;;19.30;99.90;;;;;;4666225;30;20050;-82
2022/06/01 09:41:11;;;;;;;1.53;1.43;;;19.20;99.90;;;;;;4665832;30;19931;-82
2022/06/01 09:43:41;;;;;;;3.03;1.90;;;19.30;99.90;;;;;;4682190;30;20062;-81
2022/06/01 09:46:46;;;;;;;3.20;1.48;;;19.30;99.90;;;;;;4667737;30;20503;-82
2022/06/01 09:49:27;;;;;;;1.75;1.65;;;19.20;99.90;;;;;;4660854;30;20400;-85
2022/06/01 09:52:25;;;;;;;4.85;2.05;;;19.00;99.90;;;;;;4649303;30;20062;-83
2022/06/01 09:54:56;;;;;;;3.10;2.47;;;19.00;99.90;;;;;;4664338;30;20054;-82
2022/06/01 09:57:32;;;;;;;3.38;1.38;;;19.30;99.90;;;;;;4648845;30;20055;-82
2022/06/01 10:07:09;;;;;;;1.90;1.80;;;19.00;99.90;;;;;;4689935;30;20061;-83
2022/06/01 10:09:59;;;;;;;2.70;1.85;;;18.90;99.90;;;;;;4697127;30;20046;-82
2022/06/01 10:12:47;;;;;;;5.15;1.80;;;18.80;99.90;;;;;;4681138;30;20135;-82
2022/06/01 10:15:27;;;;;;;1.80;1.70;;;18.70;99.90;;;;;;4682059;30;20615;-82
2022/06/01 10:18:05;;;;;;;2.65;2.45;;;18.80;99.90;;;;;;4681954;30;20054;-82
2022/06/01 10:20:45;;;;;;;1.70;1.60;;;18.90;99.90;;;;;;4697679;30;20049;-83
2022/06/01 10:23:25;;;;;;;6.63;1.85;;;19.20;99.90;;;;;;4698108;30;20053;-83
2022/06/01 10:25:55;;;;;;;4.40;2.17;;;19.30;99.90;;;;;;4696784;30;20529;-83
2022/06/01 10:28:40;;;;;;;2.00;1.80;;;19.40;99.90;;;;;;4697811;30;20474;-83
2022/06/01 10:31:31;;;;;;;1.65;1.55;;;19.70;99.90;;;;;;4695789;30;20502;-83
2022/06/01 10:34:31;;;;;;;1.80;1.70;;;19.70;99.90;;;;;;4697643;30;20056;-82
2022/06/01 10:37:15;;;;;;;1.92;1.83;;;19.60;99.90;;;;;;4656577;30;20050;-82
2022/06/01 10:39:52;;;;;;;1.70;1.42;;;19.50;99.90;;;;;;4663105;30;20381;-83
2022/06/01 10:42:22;;;;;;;1.80;1.70;;;19.50;99.90;;;;;;4661600;30;20062;-82
2022/06/01 10:45:08;;;;;;;1.92;1.83;;;19.50;99.90;;;;;;4664730;30;20046;-80
2022/06/01 10:47:48;;;;;;;3.15;1.67;;;19.40;99.90;;;;;;4679980;30;20050;-83
2022/06/01 10:50:20;;;;;;;4.93;1.98;;;19.30;99.90;;;;;;4681399;30;20046;-79
2022/06/01 10:53:01;;;;;;;3.95;1.45;;;19.40;99.90;;;;;;4667465;30;20061;-81
2022/06/01 10:55:39;;;;;;;1.50;1.40;;;19.40;99.90;;;;;;4683955;30;20053;-80
2022/06/01 10:58:11;;;;;;;3.67;1.80;;;19.30;99.90;;;;;;4689330;30;20331;-81
2022/06/01 11:00:56;;;;;;;2.78;1.83;;;19.40;99.90;;;;;;4700451;30;20061;-81
2022/06/01 11:03:46;;;;;;;2.53;1.90;;;19.30;99.90;;;;;;4700863;30;20593;-82
2022/06/01 11:06:49;;;;;;;5.63;1.83;;;19.30;99.90;;;;;;4679358;30;20058;-80
2022/06/01 11:09:44;;;;;;;2.83;1.40;;;19.40;99.90;;;;;;4682280;30;20336;-82
2022/06/01 11:12:49;;;;;;;2.03;1.67;;;19.50;99.90;;;;;;4683512;30;20096;-82
2022/06/01 11:15:45;;;;;;;2.13;1.83;;;19.60;99.90;;;;;;4680866;30;20062;-82
2022/06/01 11:18:34;;;;;;;1.85;1.67;;;19.80;99.90;;;;;;4682459;30;20058;-81
2022/06/01 11:21:25;;;;;;;1.70;1.60;;;19.90;99.90;;;;;;4700014;30;20068;-81
2022/06/01 11:24:07;;;;;;;3.58;1.88;;;19.80;99.90;;;;;;4700079;30;20065;-83
2022/06/01 11:27:27;;;;;;;2.92;1.70;;;19.90;99.90;;;;;;4693953;30;20057;-80
2022/06/01 11:30:09;;;;;;;1.55;1.40;;;20.00;99.90;;;;;;4654116;30;20411;-84
2022/06/01 11:32:47;;;;;;;3.72;1.98;;;20.00;99.90;;;;;;4683147;30;20058;-83
2022/06/01 11:35:28;;;;;;;3.60;2.10;;;20.10;99.90;;;;;;4682068;30;20045;-79
2022/06/01 11:38:02;;;;;;;12.10;1.70;;;20.10;99.90;;;;;;4680144;30;20840;-79
2022/06/01 11:40:52;;;;;;;1.92;1.75;;;20.10;99.90;;;;;;4682366;30;20491;-83
2022/06/01 11:43:32;;;;;;;3.00;2.00;;;20.10;99.90;;;;;;4683162;30;20415;-82
2022/06/01 11:46:22;;;;;;;1.63;1.30;;;20.30;99.90;;;;;;4682625;30;20054;-83
2022/06/01 11:48:58;;;;;;;2.13;1.55;;;20.10;99.90;;;;;;4681831;30;20495;-83
2022/06/01 11:51:45;;;;;;;3.65;1.48;;;20.10;99.90;;;;;;4680934;30;20066;-80
2022/06/01 11:54:15;;;;;;;6.22;2.42;;;20.10;99.90;;;;;;4682749;30;20415;-83
2022/06/01 11:56:44;;;;;;;2.63;1.50;;;20.10;99.90;;;;;;4695882;30;20069;-83
2022/06/01 11:59:32;;;;;;;1.33;1.25;;;20.20;99.90;;;;;;4682564;30;20419;-82
2022/06/01 12:02:17;;;;;;;2.35;1.25;;;20.00;99.90;;;;;;4679712;30;20534;-81
2022/06/01 12:05:12;;;;;;;5.00;2.45;;;20.00;99.90;;;;;;4682244;30;20411;-80
2022/06/01 12:07:46;;;;;;;2.67;2.10;;;20.00;99.90;;;;;;4682360;30;20050;-82
2022/06/01 12:10:31;;;;;;;4.95;1.48;;;20.10;99.90;;;;;;4681986;30;20054;-81
2022/06/01 12:13:06;;;;;;;1.92;1.58;;;20.30;99.90;;;;;;4682204;30;20466;-83
2022/06/01 12:16:00;;;;;;;2.72;1.60;;;20.40;99.90;;;;;;4682639;30;20064;-82
2022/06/01 12:18:29;;;;;;;1.65;1.45;;;20.60;99.90;;;;;;4665909;30;20061;-80
2022/06/01 12:21:25;;;;;;;5.07;3.03;;;20.60;99.90;;;;;;4681232;30;20526;-83
2022/06/01 12:31:02;;;;;;;1.40;1.30;;;20.80;99.90;;;;;;4647304;30;20063;-84
2022/06/01 12:33:31;;;;;;;1.48;1.33;;;20.70;99.90;;;;;;4681555;30;20418;-82
2022/06/01 12:36:00;;;;;;;4.88;2.08;;;20.70;99.90;;;;;;4679370;30;20069;-86
2022/06/01 12:38:39;;;;;;;4.85;1.60;;;20.60;99.90;;;;;;4666605;30;20054;-84
2022/06/01 12:41:20;;;;;;;6.30;2.10;;;20.80;99.90;;;;;;4682044;30;20077;-80
2022/06/01 12:43:57;;;;;;;2.28;1.63;;;20.90;99.90;;;;;;4666599;30;20064;-79
2022/06/01 12:46:38;;;;;;;1.48;1.38;;;20.70;99.90;;;;;;4695801;30;20419;-80
2022/06/01 12:49:39;;;;;;;9.75;2.10;;;20.70;99.90;;;;;;4699021;30;20057;-82
2022/06/01 12:52:08;;;;;;;5.40;1.98;;;20.80;99.90;;;;;;4698666;30;20691;-80
2022/06/01 12:54:42;;;;;;;2.47;2.28;;;20.90;99.90;;;;;;4697194;30;20053;-81
2022/06/01 12:57:26;;;;;;;3.53;2.67;;;20.80;99.90;;;;;;4697268;30;20045;-81
2022/06/01 13:00:08;;;;;;;2.65;2.05;;;21.00;99.90;;;;;;4697760;30;20058;-81
2022/06/01 13:02:37;;;;;;;3.35;1.88;;;21.10;99.90;;;;;;4692919;30;20069;-81
2022/06/01 13:05:12;;;;;;;3.63;1.67;;;21.30;99.90;;;;;;4664057;30;20050;-80
2022/06/01 13:07:46;;;;;;;5.47;2.10;;;21.30;99.90;;;;;;4663127;30;20504;-81
2022/06/01 13:10:22;;;;;;;2.37;2.17;;;21.40;99.90;;;;;;4663323;30;20096;-85
2022/06/01 13:13:00;;;;;;;1.90;1.80;;;21.50;99.90;;;;;;4678632;30;20407;-81
2022/06/01 13:15:28;;;;;;;2.70;1.88;;;21.50;99.90;;;;;;4680596;30;20856;-80
2022/06/01 13:18:02;;;;;;;3.92;1.88;;;21.10;99.90;;;;;;4681340;30;20499;-83
2022/06/01 13:20:38;;;;;;;5.45;1.30;;;21.00;99.70;;;;;;4681022;30;20062;-80
2022/06/01 13:23:17;;;;;;;7.88;1.85;;;21.00;99.90;;;;;;4677832;30;20542;-84
2022/06/01 13:25:51;;;;;;;2.38;2.17;;;21.20;99.90;;;;;;4662080;30;20065;-81
2022/06/01 13:28:33;;;;;;;4.18;1.60;;;21.10;98.80;;;;;;4679625;30;20062;-81
2022/06/01 13:31:02;;;;;;;8.88;2.13;;;21.00;99.90;;;;;;4680966;30;20419;-81
2022/06/01 13:33:37;;;;;;;2.25;2.05;;;20.90;99.90;;;;;;4676916;30;20062;-79
2022/06/01 13:36:12;;;;;;;2.95;1.45;;;21.00;99.90;;;;;;4678256;30;20045;-81
2022/06/01 13:38:49;;;;;;;1.65;1.33;;;21.00;99.90;;;;;;4671828;30;20066;-81
2022/06/01 13:41:37;;;;;;;1.50;1.40;;;21.10;99.90;;;;;;4678914;30;20054;-82
2022/06/01 13:44:13;;;;;;;4.88;1.40;;;21.20;99.90;;;;;;4680724;30;20064;-83
2022/06/01 13:46:47;;;;;;;6.25;1.50;;;21.30;99.90;;;;;;4680434;30;20050;-79
2022/06/01 13:49:17;;;;;;;2.65;1.20;;;21.30;99.90;;;;;;4680010;30;20054;-87
2022/06/01 13:52:07;;;;;;;3.17;1.17;;;21.20;99.60;;;;;;4665556;30;20070;-80
2022/06/01 13:54:36;;;;;;;1.63;1.10;;;21.00;99.90;;;;;;4683605;30;20065;-80
2022/06/01 13:57:04;;;;;;;1.88;1.67;;;20.90;99.90;;;;;;4697394;30;20045;-79
2022/06/01 13:59:35;;;;;;;1.20;1.10;;;20.80;98.80;;;;;;4692012;30;20054;-81
2022/06/01 14:02:11;;;;;;;1.45;1.33;;;20.70;99.90;;;;;;4679307;30;20537;-80
2022/06/01 14:04:46;;;;;;;4.75;1.70;;;20.70;99.90;;;;;;4679303;30;20062;-81
2022/06/01 14:07:17;;;;;;;1.27;1.17;;;20.70;99.90;;;;;;4679564;30;20058;-81
2022/06/01 14:09:58;;;;;;;3.70;1.80;;;20.80;99.90;;;;;;4662859;30;20057;-80
2022/06/01 14:12:26;;;;;;;1.42;1.33;;;21.00;99.90;;;;;;4679765;30;20061;-80
2022/06/01 14:14:57;;;;;;;1.20;1.08;;;21.20;99.90;;;;;;4679142;30;20058;-82
2022/06/01 14:17:27;;;;;;;1.88;1.55;;;21.20;99.90;;;;;;4679093;30;20062;-79
2022/06/01 14:20:01;;;;;;;2.50;2.05;;;21.00;99.90;;;;;;4679852;30;20054;-80
2022/06/01 14:22:29;;;;;;;1.85;1.40;;;20.80;99.90;;;;;;4678751;30;20057;-81
2022/06/01 14:30:43;;;;;;;1.75;1.65;;;20.40;99.90;;;;;;4679417;30;20053;-79
2022/06/01 14:33:11;;;;;;;2.60;1.35;;;20.30;99.90;;;;;;4678964;30;20128;-80
2022/06/01 14:35:44;;;;;;;1.05;0.95;;;20.20;99.90;;;;;;4679797;30;20062;-81
2022/06/01 14:38:12;;;;;;;3.03;1.20;;;20.20;99.90;;;;;;4679458;30;20518;-80
2022/06/01 14:40:40;;;;;;;1.67;1.58;;;20.20;99.90;;;;;;4678194;30;20077;-80
2022/06/01 14:43:09;;;;;;;1.40;1.30;;;20.10;99.90;;;;;;4690838;30;20065;-80
2022/06/01 14:45:40;;;;;;;1.55;1.45;;;20.10;99.90;;;;;;4678732;30;20530;-80
2022/06/01 14:48:08;;;;;;;1.73;1.63;;;20.10;99.90;;;;;;4694893;30;20457;-79
2022/06/01 14:50:37;;;;;;;5.65;1.88;;;20.10;99.90;;;;;;4696563;30;20064;-80
2022/06/01 14:53:18;;;;;;;1.90;1.80;;;20.00;99.90;;;;;;4696651;30;20056;-81
2022/06/01 14:55:46;;;;;;;2.75;1.40;;;20.00;99.90;;;;;;4696717;30;20518;-80
2022/06/01 14:58:14;;;;;;;1.95;1.75;;;20.00;99.90;;;;;;4695574;30;20061;-81
2022/06/01 15:00:44;;;;;;;1.77;1.58;;;19.90;99.90;;;;;;4684544;30;20388;-85
2022/06/01 15:03:14;;;;;;;1.52;1.42;;;19.90;99.90;;;;;;4662824;30;20085;-79
2022/06/01 15:05:41;;;;;;;1.83;1.60;;;19.80;99.90;;;;;;4661666;30;20050;-81
2022/06/01 15:08:09;;;;;;;3.67;1.20;;;19.80;99.90;;;;;;4662750;30;20057;-81
2022/06/01 15:10:41;;;;;;;4.00;1.75;;;19.70;99.90;;;;;;4664443;30;20089;-80
2022/06/01 15:13:11;;;;;;;1.40;1.30;;;19.70;99.90;;;;;;4678652;30;20049;-80
2022/06/01 15:15:39;;;;;;;4.03;1.35;;;19.60;99.90;;;;;;4679735;30;20582;-80
2022/06/01 15:18:14;;;;;;;5.72;1.83;;;19.60;99.90;;;;;;4691097;30;20085;-82
2022/06/01 15:20:42;;;;;;;1.50;1.40;;;19.60;99.90;;;;;;4679524;30;20054;-81
2022/06/01 15:23:10;;;;;;;1.55;1.45;;;19.50;99.90;;;;;;4680371;30;20054;-81
2022/06/01 15:25:39;;;;;;;1.63;1.52;;;19.40;99.90;;;;;;4678600;30;20049;-82
2022/06/01 15:28:07;;;;;;;1.38;1.27;;;19.30;99.90;;;;;;4679040;30;20061;-79
2022/06/01 15:41:43;;;;;;;1.50;1.40;;;19.20;99.90;;;;;;4664695;30;20065;-80
2022/06/01 15:44:11;;;;;;;1.50;1.40;;;19.20;99.90;;;;;;4666124;30;20063;-80
2022/06/01 15:46:39;;;;;;;1.95;1.77;;;19.20;99.90;;;;;;4664267;30;20590;-81
2022/06/01 15:49:10;;;;;;;2.55;1.45;;;19.10;99.90;;;;;;4664749;30;20055;-80
2022/06/01 15:51:54;;;;;;;2.67;1.33;;;19.10;99.90;;;;;;4665359;30;20484;-81
2022/06/01 15:54:35;;;;;;;2.63;1.30;;;19.10;99.90;;;;;;4671379;30;20502;-80
2022/06/01 15:57:04;;;;;;;1.15;1.05;;;19.00;99.90;;;;;;4692187;30;20747;-81
2022/06/01 15:59:32;;;;;;;16.35;2.28;;;18.90;99.90;;;;;;4678904;30;20066;-80
2022/06/01 16:02:07;;;;;;;;;;;18.80;99.90;;;;;;4682361;30;20050;-82
2022/06/01 16:04:46;;;;;;;2.38;2.08;;;18.80;99.90;;;;;;4681703;30;19938;-85
2022/06/01 16:07:18;;;;;;;5.00;1.38;;;18.80;99.90;;;;;;4682028;30;20059;-84
2022/06/01 16:09:48;;;;;;;3.15;1.70;;;18.70;99.90;;;;;;4674921;30;20041;-82
2022/06/01 16:12:17;;;;;;;2.90;2.00;;;18.70;99.90;;;;;;4677632;30;20058;-82
2022/06/01 16:14:51;;;;;;;3.40;1.50;;;18.70;99.90;;;;;;4663175;30;20507;-81
2022/06/01 16:17:39;;;;;;;4.13;1.40;;;18.50;99.90;;;;;;4679815;30;20054;-81
2022/06/01 16:20:09;;;;;;;2.90;2.42;;;18.50;99.90;;;;;;4679563;30;20069;-81
2022/06/01 16:22:38;;;;;;;;;;;18.50;99.90;;;;;;4679848;30;20538;-80
2022/06/01 16:25:10;;;;;;;2.35;1.92;;;18.40;99.90;;;;;;4680289;30;19938;-81
2022/06/01 16:27:39;;;;;;;7.70;1.95;;;18.30;99.90;;;;;;4680329;30;20054;-81
2022/06/01 16:30:09;;;;;;;2.80;1.92;;;18.30;99.90;;;;;;4680294;30;20050;-81
2022/06/01 16:32:42;;;;;;;1.58;1.42;;;18.20;99.90;;;;;;4678248;30;20065;-80
2022/06/01 16:35:18;;;;;;;3.13;1.55;;;18.10;99.90;;;;;;4681318;30;20046;-81
2022/06/01 16:37:48;;;;;;;2.05;1.95;;;18.00;99.90;;;;;;4665008;30;20053;-83
2022/06/01 16:40:19;;;;;;;2.50;1.67;;;17.80;99.90;;;;;;4672678;30;20511;-81
2022/06/01 16:42:57;;;;;;;2.22;1.50;;;17.60;99.90;;;;;;4682292;30;20049;-81